Time;durP1;ratioP1;P1;durP2;ratioP2;P2;SDS_P1;SDS_P2;PMS_P1;PMS_P2;Temp;Humidity;BMP_temperature;BMP_pressure;BME280_temperature;BME280_humidity;BME280_pressure;Samples;Min_cycle;Max_cycle;Signal;HPM_P1;HPM_P2
2021/05/18 00:00:22;;;;;;;3.55;2.63;;;14.90;99.90;;;;;;5051229;28;20209;-73
2021/05/18 00:02:51;;;;;;;3.90;2.50;;;14.80;99.90;;;;;;5068361;28;20251;-73
2021/05/18 00:05:18;;;;;;;3.83;3.30;;;14.80;99.90;;;;;;5062415;28;20263;-72
2021/05/18 00:07:50;;;;;;;3.13;2.88;;;14.80;99.90;;;;;;5065900;28;20215;-72
2021/05/18 00:13:00;;;;;;;6.75;2.58;;;14.80;99.90;;;;;;5070777;28;20205;-72
2021/05/18 00:15:27;;;;;;;4.35;2.38;;;14.80;99.90;;;;;;5062067;28;20221;-72
2021/05/18 00:17:54;;;;;;;5.63;3.05;;;14.80;99.90;;;;;;5051962;28;20195;-72
2021/05/18 00:20:20;;;;;;;3.30;3.00;;;14.70;99.90;;;;;;5061170;28;20229;-72
2021/05/18 00:22:47;;;;;;;3.35;2.78;;;14.70;99.90;;;;;;5070462;28;20248;-71
2021/05/18 00:25:14;;;;;;;3.30;3.10;;;14.70;99.90;;;;;;5072235;28;20565;-72
2021/05/18 00:27:41;;;;;;;3.05;2.15;;;14.70;99.90;;;;;;5073047;28;20213;-71
2021/05/18 00:30:10;;;;;;;4.15;2.50;;;14.70;99.90;;;;;;5074667;28;20202;-72
2021/05/18 00:32:36;;;;;;;3.15;2.50;;;14.70;99.90;;;;;;5070798;28;20207;-72
2021/05/18 00:35:05;;;;;;;4.80;2.63;;;14.70;99.90;;;;;;5054205;28;20689;-72
2021/05/18 00:37:31;;;;;;;4.25;2.67;;;14.70;99.90;;;;;;5054128;28;20199;-72
2021/05/18 00:39:57;;;;;;;5.05;2.30;;;14.70;99.90;;;;;;5061392;28;20197;-72
2021/05/18 00:42:25;;;;;;;4.80;3.00;;;14.60;99.90;;;;;;5073715;28;20649;-72
2021/05/18 00:44:53;;;;;;;4.15;2.90;;;14.60;99.90;;;;;;5067182;28;20220;-72
2021/05/18 00:47:20;;;;;;;3.45;3.05;;;14.60;99.90;;;;;;5074418;28;20214;-72
2021/05/18 00:49:46;;;;;;;5.45;3.00;;;14.60;99.90;;;;;;5074070;28;20191;-72
2021/05/18 00:52:15;;;;;;;3.30;2.22;;;14.60;99.90;;;;;;5073808;28;20190;-71
2021/05/18 00:54:43;;;;;;;3.75;2.50;;;14.60;99.90;;;;;;5063044;28;20198;-72
2021/05/18 00:59:54;;;;;;;7.22;2.88;;;14.60;99.90;;;;;;5053934;28;20720;-72
2021/05/18 01:02:21;;;;;;;2.63;2.33;;;14.60;99.90;;;;;;5067690;28;20223;-73
2021/05/18 01:04:48;;;;;;;2.90;2.10;;;14.60;99.90;;;;;;5071408;28;20198;-72
2021/05/18 01:07:15;;;;;;;4.03;2.85;;;14.60;99.90;;;;;;5073154;28;20720;-72
2021/05/18 01:09:41;;;;;;;4.75;2.55;;;14.60;99.90;;;;;;5073908;28;20209;-72
2021/05/18 01:12:08;;;;;;;4.90;2.28;;;14.60;99.90;;;;;;5073358;28;20194;-72
2021/05/18 01:14:35;;;;;;;4.50;2.40;;;14.50;99.90;;;;;;5072336;28;20198;-72
2021/05/18 01:17:01;;;;;;;3.70;2.80;;;14.50;99.90;;;;;;5073421;28;20186;-72
2021/05/18 01:19:27;;;;;;;1.90;1.80;;;14.50;99.90;;;;;;5073196;28;20190;-73
2021/05/18 01:21:55;;;;;;;3.55;2.38;;;14.50;99.90;;;;;;5072473;28;20225;-72
2021/05/18 01:24:22;;;;;;;5.32;2.70;;;14.50;99.90;;;;;;5073192;28;20639;-72
2021/05/18 01:26:49;;;;;;;4.70;2.65;;;14.40;99.90;;;;;;5073424;28;20202;-72
2021/05/18 01:29:17;;;;;;;2.60;2.40;;;14.40;99.90;;;;;;5057088;28;20228;-72
2021/05/18 01:31:45;;;;;;;2.78;2.05;;;14.40;99.90;;;;;;5073216;28;20512;-72
2021/05/18 01:34:11;;;;;;;3.22;2.22;;;14.50;99.90;;;;;;5056686;28;20194;-73
2021/05/18 01:36:38;;;;;;;4.20;2.80;;;14.50;99.90;;;;;;5065101;28;20201;-72
2021/05/18 01:39:13;;;;;;;5.85;1.95;;;14.40;99.90;;;;;;5057774;28;20209;-72
2021/05/18 01:44:23;;;;;;;3.28;2.53;;;14.40;99.90;;;;;;5072748;28;20240;-72
2021/05/18 01:46:50;;;;;;;4.00;2.60;;;14.40;99.90;;;;;;5071700;28;20202;-72
2021/05/18 01:49:16;;;;;;;4.68;2.63;;;14.30;99.90;;;;;;5072969;28;20806;-72
2021/05/18 01:51:44;;;;;;;4.22;2.45;;;14.30;99.90;;;;;;5072527;28;20190;-72
2021/05/18 01:54:14;;;;;;;3.60;2.17;;;14.30;99.90;;;;;;5071868;28;20272;-72
2021/05/18 01:56:46;;;;;;;6.28;2.83;;;14.30;99.90;;;;;;5070757;28;20783;-72
2021/05/18 01:59:14;;;;;;;3.85;2.80;;;14.30;99.90;;;;;;5070850;28;20546;-72
2021/05/18 02:01:41;;;;;;;2.85;2.40;;;14.30;99.90;;;;;;5072470;28;20191;-72
2021/05/18 02:04:07;;;;;;;5.35;2.90;;;14.30;99.90;;;;;;5068614;28;20271;-72
2021/05/18 02:06:35;;;;;;;6.50;2.88;;;14.30;99.90;;;;;;5061334;28;20218;-72
2021/05/18 02:09:02;;;;;;;2.47;2.28;;;14.30;99.90;;;;;;5072704;28;20272;-72
2021/05/18 02:11:31;;;;;;;2.92;2.45;;;14.30;99.90;;;;;;5072182;28;20247;-72
2021/05/18 02:14:00;;;;;;;5.93;3.08;;;14.20;99.90;;;;;;5072848;28;20217;-72
2021/05/18 02:16:32;;;;;;;2.90;2.15;;;14.20;99.90;;;;;;5052314;28;20230;-72
2021/05/18 02:19:14;;;;;;;2.30;2.10;;;14.30;99.90;;;;;;5052536;28;20229;-72
2021/05/18 02:21:52;;;;;;;4.80;2.60;;;14.30;99.90;;;;;;5062561;28;20252;-72
2021/05/18 02:24:45;;;;;;;5.28;2.70;;;14.30;99.90;;;;;;5067825;28;20197;-72
2021/05/18 02:27:12;;;;;;;5.85;2.60;;;14.30;99.90;;;;;;5072141;28;20297;-72
2021/05/18 02:29:39;;;;;;;3.78;3.30;;;14.20;99.90;;;;;;5057332;28;20195;-72
2021/05/18 02:32:06;;;;;;;5.20;3.58;;;14.20;99.90;;;;;;5067633;28;20194;-73
2021/05/18 02:34:32;;;;;;;8.23;2.97;;;14.20;99.90;;;;;;5063833;28;20229;-72
2021/05/18 02:37:00;;;;;;;6.43;3.58;;;14.20;99.90;;;;;;5052287;28;20207;-72
2021/05/18 02:39:27;;;;;;;3.63;2.80;;;14.10;99.90;;;;;;5067900;28;20194;-72
2021/05/18 02:41:53;;;;;;;4.78;3.00;;;14.10;99.90;;;;;;5071594;28;20573;-73
2021/05/18 02:44:25;;;;;;;5.47;2.95;;;14.10;99.90;;;;;;5065103;28;20191;-73
2021/05/18 02:49:35;;;;;;;3.33;3.08;;;14.10;99.90;;;;;;5055806;28;20200;-73
2021/05/18 02:52:02;;;;;;;6.20;4.22;;;14.10;99.90;;;;;;5066567;28;20199;-72
2021/05/18 02:54:28;;;;;;;4.80;3.10;;;14.00;99.90;;;;;;5052076;28;20268;-72
2021/05/18 02:56:57;;;;;;;6.40;3.70;;;14.00;99.90;;;;;;5057263;28;20194;-73
2021/05/18 02:59:24;;;;;;;5.63;3.72;;;14.00;99.90;;;;;;5060200;28;20206;-72
2021/05/18 03:01:52;;;;;;;5.05;4.00;;;14.00;99.90;;;;;;5064525;28;20209;-72
2021/05/18 03:04:18;;;;;;;7.57;3.97;;;14.00;99.90;;;;;;5070742;28;20206;-72
2021/05/18 03:06:47;;;;;;;5.85;3.97;;;13.90;99.90;;;;;;5071945;28;20197;-73
2021/05/18 03:09:14;;;;;;;6.45;4.00;;;13.90;99.90;;;;;;5070600;28;20197;-72
2021/05/18 03:11:42;;;;;;;5.40;3.72;;;13.90;99.90;;;;;;5071257;28;20209;-73
2021/05/18 03:14:10;;;;;;;4.30;3.25;;;13.90;99.90;;;;;;5071965;28;20217;-72
2021/05/18 03:16:38;;;;;;;4.50;4.00;;;13.90;99.90;;;;;;5070137;28;20263;-73
2021/05/18 03:19:05;;;;;;;6.20;4.50;;;13.90;99.90;;;;;;5071374;28;20204;-73
2021/05/18 03:21:32;;;;;;;5.78;4.18;;;13.90;99.90;;;;;;5066366;28;20225;-73
2021/05/18 03:23:59;;;;;;;6.45;4.57;;;13.90;99.90;;;;;;5071870;28;20656;-73
2021/05/18 03:26:27;;;;;;;4.13;3.15;;;13.90;99.90;;;;;;5069449;28;20201;-73
2021/05/18 03:28:58;;;;;;;7.30;3.75;;;13.90;99.90;;;;;;5071223;28;20214;-72
2021/05/18 03:34:34;;;;;;;5.05;4.30;;;13.90;99.90;;;;;;5017329;28;20283;-73
2021/05/18 03:37:06;;;;;;;4.30;3.45;;;13.90;99.90;;;;;;5009714;28;20210;-72
2021/05/18 03:39:32;;;;;;;6.85;5.00;;;13.90;99.90;;;;;;5049182;28;20213;-72
2021/05/18 03:42:03;;;;;;;5.28;4.45;;;13.90;99.90;;;;;;5068566;28;20194;-72
2021/05/18 03:44:46;;;;;;;7.63;4.38;;;13.90;99.90;;;;;;5071220;28;20209;-72
2021/05/18 03:52:57;;;;;;;5.60;4.80;;;13.80;99.90;;;;;;5027679;28;20297;-72
2021/05/18 04:03:42;;;;;;;5.13;4.32;;;13.80;99.90;;;;;;5073883;28;20644;-72
2021/05/18 04:17:08;;;;;;;4.40;4.00;;;13.80;99.90;;;;;;5064915;28;20184;-72
2021/05/18 04:19:36;;;;;;;4.38;3.80;;;13.80;99.90;;;;;;5065425;28;20558;-72
2021/05/18 04:22:30;;;;;;;4.50;4.10;;;13.80;99.90;;;;;;5067249;28;20677;-73
2021/05/18 04:39:00;;;;;;;4.50;3.63;;;13.70;99.90;;;;;;5053606;28;20514;-72
2021/05/18 04:41:59;;;;;;;5.68;4.20;;;13.70;99.90;;;;;;5067839;28;20624;-72
2021/05/18 04:50:04;;;;;;;7.53;4.15;;;13.70;99.90;;;;;;5065863;28;20197;-72
2021/05/18 04:52:33;;;;;;;4.85;3.22;;;13.70;99.90;;;;;;5070118;28;20200;-72
2021/05/18 05:00:38;;;;;;;3.63;3.33;;;13.70;99.90;;;;;;5062103;28;20705;-72
2021/05/18 05:03:22;;;;;;;5.28;3.47;;;13.70;99.90;;;;;;5052849;28;20212;-72
2021/05/18 05:08:40;;;;;;;4.05;3.65;;;13.80;99.90;;;;;;5052854;28;20222;-73
2021/05/18 05:16:36;;;;;;;4.63;3.45;;;13.70;99.90;;;;;;5072273;28;20220;-73
2021/05/18 05:19:02;;;;;;;5.00;3.38;;;13.70;99.90;;;;;;5072498;28;20251;-73
2021/05/18 05:21:30;;;;;;;5.10;3.58;;;13.70;99.90;;;;;;5054887;28;20234;-72
2021/05/18 05:23:56;;;;;;;3.67;3.25;;;13.70;99.90;;;;;;5052736;28;20206;-73
2021/05/18 05:26:23;;;;;;;5.35;3.95;;;13.70;99.90;;;;;;5069739;28;20661;-72
2021/05/18 05:28:50;;;;;;;4.82;3.88;;;13.70;99.90;;;;;;5072230;28;20229;-72
2021/05/18 05:31:16;;;;;;;9.63;4.00;;;13.70;99.90;;;;;;5072591;28;20198;-72
2021/05/18 05:33:42;;;;;;;5.00;3.90;;;13.60;99.90;;;;;;5071349;28;20633;-72
2021/05/18 05:36:09;;;;;;;4.32;3.30;;;13.70;99.90;;;;;;5064655;28;20203;-73
2021/05/18 05:38:35;;;;;;;3.80;3.50;;;13.70;99.90;;;;;;5072058;28;20634;-73
2021/05/18 05:41:01;;;;;;;7.75;4.28;;;13.70;99.90;;;;;;5071994;28;20229;-73
2021/05/18 05:43:28;;;;;;;6.55;3.78;;;13.70;99.90;;;;;;5072257;28;20248;-72
2021/05/18 05:45:55;;;;;;;3.80;3.05;;;13.70;99.90;;;;;;5071444;28;20681;-72
2021/05/18 05:48:21;;;;;;;5.20;3.33;;;13.70;99.90;;;;;;5071889;28;20210;-72
2021/05/18 05:50:48;;;;;;;4.50;3.50;;;13.70;99.90;;;;;;5071803;28;20217;-72
2021/05/18 05:53:14;;;;;;;5.70;4.20;;;13.70;99.90;;;;;;5072393;28;20267;-72
2021/05/18 05:55:41;;;;;;;4.43;4.05;;;13.70;99.90;;;;;;5065279;28;20657;-72
2021/05/18 05:58:07;;;;;;;5.07;4.15;;;13.60;99.90;;;;;;5071977;28;20240;-72
2021/05/18 06:00:35;;;;;;;5.75;4.75;;;13.70;99.90;;;;;;5072130;28;20217;-72
2021/05/18 06:03:01;;;;;;;4.97;3.72;;;13.80;99.90;;;;;;5070351;28;20260;-72
2021/05/18 06:05:27;;;;;;;6.43;4.93;;;13.80;99.90;;;;;;5070901;28;20206;-71
2021/05/18 06:07:53;;;;;;;4.55;4.22;;;13.70;99.90;;;;;;5064202;28;20276;-72
2021/05/18 06:10:23;;;;;;;4.00;3.60;;;13.70;99.90;;;;;;5071813;28;20561;-72
2021/05/18 06:12:59;;;;;;;5.18;4.35;;;13.80;99.90;;;;;;5067454;28;20194;-70
2021/05/18 06:15:50;;;;;;;4.90;4.40;;;13.80;99.90;;;;;;5062483;28;20267;-71
2021/05/18 06:41:08;;;;;;;5.50;4.57;;;13.80;99.90;;;;;;5005463;28;20289;-71
2021/05/18 06:43:27;;;;;;;4.40;4.00;;;13.80;99.90;;;;;;5051013;28;20213;-71
2021/05/18 06:46:10;;;;;;;8.05;5.93;;;13.80;99.90;;;;;;5064576;28;20192;-71
2021/05/18 06:48:36;;;;;;;3.78;3.42;;;13.80;99.90;;;;;;5069939;28;20288;-71
2021/05/18 06:51:04;;;;;;;7.70;6.47;;;13.80;99.90;;;;;;5053835;28;20214;-71
2021/05/18 06:53:30;;;;;;;3.97;3.67;;;13.70;99.90;;;;;;5050447;28;20199;-71
2021/05/18 06:55:57;;;;;;;3.55;3.22;;;13.70;99.90;;;;;;5051045;28;20210;-71
2021/05/18 07:01:12;;;;;;;6.82;5.03;;;13.80;99.90;;;;;;5039697;28;20198;-71
2021/05/18 07:03:42;;;;;;;5.57;5.05;;;13.80;99.90;;;;;;5066803;28;20198;-70
2021/05/18 07:06:22;;;;;;;5.75;5.05;;;13.80;99.90;;;;;;5070569;28;20197;-71
2021/05/18 07:08:55;;;;;;;6.57;5.97;;;13.80;99.90;;;;;;5057613;28;20205;-71
2021/05/18 07:11:22;;;;;;;8.25;7.25;;;13.90;99.90;;;;;;5065275;28;20199;-71
2021/05/18 07:13:48;;;;;;;8.35;7.40;;;13.90;99.90;;;;;;5054086;28;20222;-72
2021/05/18 07:16:14;;;;;;;6.00;5.40;;;13.90;99.90;;;;;;5060440;28;20198;-71
2021/05/18 07:18:40;;;;;;;7.45;5.70;;;13.90;99.90;;;;;;5056688;28;20186;-72
2021/05/18 07:21:07;;;;;;;3.97;3.22;;;13.90;99.90;;;;;;5058103;28;20253;-71
2021/05/18 07:23:34;;;;;;;7.25;5.63;;;13.80;99.90;;;;;;5068270;28;20194;-71
2021/05/18 07:26:01;;;;;;;5.88;5.28;;;13.80;99.90;;;;;;5068851;28;20248;-71
2021/05/18 07:28:30;;;;;;;4.53;4.15;;;13.90;99.90;;;;;;5065952;28;20276;-71
2021/05/18 07:30:57;;;;;;;4.82;4.00;;;13.80;99.90;;;;;;5058730;28;20204;-72
2021/05/18 07:33:23;;;;;;;5.70;4.28;;;13.90;99.90;;;;;;5057948;28;20755;-74
2021/05/18 07:35:54;;;;;;;3.72;3.05;;;13.90;99.90;;;;;;5075627;28;20208;-73
2021/05/18 07:38:20;;;;;;;4.75;4.00;;;13.80;99.90;;;;;;5077064;28;20255;-72
2021/05/18 07:40:47;;;;;;;5.22;4.25;;;13.80;99.90;;;;;;5076703;28;20804;-72
2021/05/18 07:43:17;;;;;;;6.55;5.30;;;13.80;99.90;;;;;;5074120;28;20201;-72
2021/05/18 07:45:46;;;;;;;6.85;4.43;;;13.80;99.90;;;;;;5077076;28;20212;-72
2021/05/18 07:48:18;;;;;;;4.55;4.03;;;13.80;99.90;;;;;;5075009;28;20309;-72
2021/05/18 07:50:47;;;;;;;4.45;4.03;;;13.70;99.90;;;;;;5076306;28;20182;-72
2021/05/18 08:06:56;;;;;;;9.00;6.90;;;13.90;99.90;;;;;;5058602;28;20489;-72
2021/05/18 08:09:24;;;;;;;6.20;5.55;;;13.90;99.90;;;;;;5056531;28;20234;-72
2021/05/18 08:11:51;;;;;;;7.00;5.15;;;13.90;99.90;;;;;;5070938;28;20190;-72
2021/05/18 08:14:20;;;;;;;8.18;5.30;;;13.90;99.90;;;;;;5060976;28;20211;-72
2021/05/18 08:19:56;;;;;;;5.93;5.38;;;13.90;99.90;;;;;;5070619;28;20197;-72
2021/05/18 10:22:05;;;;;;;5.35;4.85;;;15.00;99.90;;;;;;5066679;28;20324;-73
2021/05/18 10:35:39;;;;;;;2.90;2.70;;;14.90;99.90;;;;;;5070867;28;20206;-73
2021/05/18 10:38:08;;;;;;;3.33;3.03;;;14.90;99.90;;;;;;5051722;28;20282;-73
2021/05/18 10:40:36;;;;;;;3.15;2.95;;;14.90;99.90;;;;;;5068045;28;20744;-73
2021/05/18 10:43:08;;;;;;;3.72;3.30;;;14.90;99.90;;;;;;5070234;28;20202;-73
2021/05/18 10:46:00;;;;;;;2.78;2.55;;;14.80;99.90;;;;;;5069008;28;20646;-73
2021/05/18 10:48:28;;;;;;;3.25;2.97;;;14.80;99.90;;;;;;5070344;28;20558;-73
2021/05/18 10:50:54;;;;;;;3.13;2.88;;;14.80;99.90;;;;;;5069893;28;20205;-72
2021/05/18 10:53:21;;;;;;;3.53;2.88;;;14.90;99.90;;;;;;5068083;28;20627;-73
2021/05/18 10:56:04;;;;;;;3.20;2.92;;;14.80;99.90;;;;;;5069408;28;20198;-72
2021/05/18 10:58:31;;;;;;;3.00;2.80;;;14.80;99.90;;;;;;5056323;28;20225;-72
2021/05/18 11:00:57;;;;;;;4.05;2.80;;;14.80;99.90;;;;;;5062394;28;20198;-73
2021/05/18 11:03:24;;;;;;;2.60;2.40;;;14.80;99.90;;;;;;5066418;28;20201;-73
2021/05/18 11:05:51;;;;;;;3.45;2.97;;;14.80;99.90;;;;;;5069240;28;20594;-73
2021/05/18 11:08:18;;;;;;;3.00;2.08;;;14.90;99.90;;;;;;5070372;28;20210;-72
2021/05/18 11:10:46;;;;;;;2.42;2.22;;;14.80;99.90;;;;;;5070419;28;20202;-72
2021/05/18 11:13:13;;;;;;;4.72;3.08;;;14.80;99.90;;;;;;5071074;28;20230;-72
2021/05/18 11:15:40;;;;;;;4.32;2.38;;;14.80;99.90;;;;;;5064242;28;20233;-73
2021/05/18 11:18:06;;;;;;;2.63;2.42;;;14.80;99.90;;;;;;5070140;28;20201;-72
2021/05/18 11:20:47;;;;;;;1.88;1.75;;;14.80;99.90;;;;;;5059791;28;20245;-72
2021/05/18 11:23:23;;;;;;;2.17;1.98;;;14.80;99.90;;;;;;5068443;28;20679;-71
2021/05/18 11:25:53;;;;;;;2.40;2.20;;;14.90;99.90;;;;;;5066234;28;20243;-72
2021/05/18 11:28:25;;;;;;;2.28;2.17;;;14.80;99.90;;;;;;5075652;28;20209;-72
2021/05/18 11:30:53;;;;;;;1.75;1.58;;;14.80;99.90;;;;;;5062227;28;20286;-72
2021/05/18 11:33:20;;;;;;;2.22;1.85;;;14.80;99.90;;;;;;5070366;28;20202;-72
2021/05/18 11:36:00;;;;;;;2.08;1.83;;;14.90;99.90;;;;;;5066644;28;20578;-71
2021/05/18 11:38:28;;;;;;;2.67;2.47;;;14.90;99.90;;;;;;5050624;28;20179;-71
2021/05/18 11:40:55;;;;;;;2.38;2.00;;;14.90;99.90;;;;;;5062171;28;20194;-72
2021/05/18 11:43:24;;;;;;;2.00;1.88;;;14.90;99.90;;;;;;5070461;28;20631;-72
2021/05/18 11:45:52;;;;;;;2.10;2.00;;;15.00;99.90;;;;;;5051038;28;20203;-71
2021/05/18 11:48:20;;;;;;;2.50;2.13;;;14.90;99.90;;;;;;5068624;28;20213;-71
2021/05/18 11:51:00;;;;;;;2.10;1.90;;;15.00;99.90;;;;;;5055701;28;20209;-71
2021/05/18 11:53:36;;;;;;;1.70;1.60;;;15.10;99.90;;;;;;5070006;28;20270;-71
2021/05/18 11:56:16;;;;;;;2.78;1.83;;;15.10;99.90;;;;;;5070308;28;20193;-71
2021/05/18 11:58:43;;;;;;;1.83;1.73;;;15.20;99.90;;;;;;5049776;28;20225;-71
2021/05/18 12:01:10;;;;;;;3.38;1.50;;;15.30;99.90;;;;;;5050107;28;20532;-71
2021/05/18 12:03:36;;;;;;;2.00;1.85;;;15.20;99.90;;;;;;5054804;28;20296;-72
2021/05/18 12:06:04;;;;;;;1.98;1.88;;;15.20;99.90;;;;;;5063541;28;20198;-71
2021/05/18 12:08:32;;;;;;;1.90;1.80;;;15.20;99.90;;;;;;5069940;28;20309;-74
2021/05/18 12:11:12;;;;;;;1.75;1.65;;;15.20;99.90;;;;;;5068784;28;20198;-73
2021/05/18 12:13:39;;;;;;;1.80;1.70;;;15.30;99.90;;;;;;5068456;28;20202;-74
2021/05/18 12:16:08;;;;;;;1.60;1.40;;;15.30;99.90;;;;;;5069624;28;20209;-74
2021/05/18 12:18:36;;;;;;;2.08;1.60;;;15.20;99.90;;;;;;5051623;28;20199;-73
2021/05/18 12:21:05;;;;;;;2.20;1.35;;;15.20;99.90;;;;;;5063237;28;20227;-72
2021/05/18 12:23:32;;;;;;;1.55;1.45;;;15.20;99.90;;;;;;5068452;28;20638;-73
2021/05/18 12:26:13;;;;;;;1.50;1.40;;;15.30;99.90;;;;;;5072439;28;20198;-72
2021/05/18 12:28:52;;;;;;;1.50;1.40;;;15.30;99.90;;;;;;5055597;28;20222;-72
2021/05/18 12:31:27;;;;;;;1.90;1.70;;;15.30;99.90;;;;;;5073467;28;20197;-72
2021/05/18 12:33:53;;;;;;;1.50;1.40;;;15.30;99.90;;;;;;5063281;28;20198;-72
2021/05/18 12:36:19;;;;;;;1.50;1.40;;;15.40;99.90;;;;;;5057623;28;20190;-72
2021/05/18 12:39:11;;;;;;;2.28;1.65;;;15.40;99.90;;;;;;5067899;28;20195;-72
2021/05/18 12:41:52;;;;;;;1.38;1.27;;;15.40;99.90;;;;;;5065678;28;20194;-72
2021/05/18 12:44:19;;;;;;;1.27;1.17;;;15.40;99.90;;;;;;5071789;28;20196;-72
2021/05/18 12:47:01;;;;;;;1.70;1.60;;;15.50;99.90;;;;;;5066678;28;20202;-72
2021/05/18 12:49:30;;;;;;;1.70;1.42;;;15.50;99.90;;;;;;5068294;28;20271;-72
2021/05/18 12:52:05;;;;;;;1.63;1.40;;;15.50;99.90;;;;;;5072509;28;20204;-72
2021/05/18 12:54:46;;;;;;;1.77;1.50;;;15.50;99.90;;;;;;5073203;28;20194;-72
2021/05/18 12:57:14;;;;;;;1.30;1.20;;;15.60;99.90;;;;;;5067632;28;20194;-73
2021/05/18 13:00:08;;;;;;;1.52;1.27;;;15.60;99.90;;;;;;5062220;28;20199;-72
2021/05/18 13:02:38;;;;;;;1.70;1.35;;;15.60;99.90;;;;;;5060176;28;20273;-72
2021/05/18 13:05:10;;;;;;;1.45;1.30;;;15.60;99.90;;;;;;5071904;28;20190;-72
2021/05/18 13:07:37;;;;;;;1.50;1.20;;;15.60;99.90;;;;;;5073377;28;20202;-73
2021/05/18 13:10:10;;;;;;;2.58;1.40;;;15.60;99.90;;;;;;5082709;28;20703;-72
2021/05/18 13:12:36;;;;;;;1.33;1.23;;;15.60;99.90;;;;;;5075294;28;20224;-72
2021/05/18 13:15:09;;;;;;;1.20;1.10;;;15.60;99.90;;;;;;5073801;28;20267;-73
2021/05/18 13:17:37;;;;;;;1.13;1.02;;;15.60;99.90;;;;;;5073728;28;20208;-73
2021/05/18 13:20:08;;;;;;;1.30;1.17;;;15.60;99.90;;;;;;5069281;28;20199;-72
2021/05/18 13:22:38;;;;;;;1.60;1.08;;;15.60;99.90;;;;;;5069303;28;20201;-71
2021/05/18 13:27:52;;;;;;;1.40;1.10;;;15.60;99.90;;;;;;5069135;28;20408;-72
2021/05/18 13:30:20;;;;;;;2.22;1.17;;;15.60;99.90;;;;;;5073207;28;20208;-72
2021/05/18 13:32:48;;;;;;;1.40;1.30;;;15.60;99.90;;;;;;5068321;28;20631;-73
2021/05/18 13:35:14;;;;;;;1.40;1.30;;;15.60;99.90;;;;;;5069250;28;20297;-72
2021/05/18 13:37:41;;;;;;;1.65;1.23;;;15.60;99.90;;;;;;5071254;28;20194;-73
2021/05/18 13:40:08;;;;;;;1.10;1.00;;;15.60;99.90;;;;;;5055757;28;20205;-72
2021/05/18 13:42:35;;;;;;;1.33;1.23;;;15.70;99.90;;;;;;5072203;28;20244;-72
2021/05/18 13:45:01;;;;;;;2.20;2.00;;;15.70;99.90;;;;;;5069971;28;20638;-73
2021/05/18 13:47:27;;;;;;;1.73;1.60;;;15.70;99.90;;;;;;5088380;28;20328;-73
2021/05/18 13:49:54;;;;;;;2.25;1.50;;;15.70;99.90;;;;;;5091944;28;20684;-72
2021/05/18 13:52:20;;;;;;;1.70;1.60;;;15.70;99.90;;;;;;5072160;28;20194;-72
2021/05/18 13:54:46;;;;;;;1.60;1.50;;;15.70;99.90;;;;;;5051684;28;20839;-72
2021/05/18 13:57:12;;;;;;;3.17;2.22;;;15.70;99.90;;;;;;5060445;28;20244;-72
2021/05/18 13:59:39;;;;;;;1.75;1.65;;;15.70;99.90;;;;;;5066236;28;20194;-72
2021/05/18 14:02:05;;;;;;;2.13;1.92;;;15.80;99.90;;;;;;5069467;28;20592;-72
2021/05/18 14:04:31;;;;;;;1.70;1.60;;;15.80;99.90;;;;;;5071904;28;20201;-72
2021/05/18 14:07:39;;;;;;;4.90;2.25;;;15.80;99.90;;;;;;5071373;28;20213;-72
2021/05/18 14:10:06;;;;;;;1.75;1.65;;;15.70;99.90;;;;;;5069976;28;20536;-72
2021/05/18 14:12:32;;;;;;;2.03;1.80;;;15.80;99.90;;;;;;5062550;28;20210;-72
2021/05/18 14:14:59;;;;;;;2.20;2.00;;;15.80;99.90;;;;;;5051138;28;20210;-72
2021/05/18 14:17:25;;;;;;;2.08;1.80;;;15.70;99.90;;;;;;5060224;28;20622;-72
2021/05/18 14:19:51;;;;;;;2.33;1.95;;;15.70;99.90;;;;;;5066651;28;20253;-72
2021/05/18 14:22:18;;;;;;;2.08;1.77;;;15.70;99.90;;;;;;5064183;28;20198;-72
2021/05/18 14:24:51;;;;;;;2.22;1.75;;;15.70;99.90;;;;;;5052961;28;20233;-73
2021/05/18 14:27:19;;;;;;;2.60;1.70;;;15.70;99.90;;;;;;5051400;28;20416;-72
2021/05/18 14:29:45;;;;;;;1.60;1.50;;;15.70;99.90;;;;;;5059179;28;20215;-72
2021/05/18 14:32:12;;;;;;;2.38;1.65;;;15.70;99.90;;;;;;5071025;28;20198;-72
2021/05/18 14:34:38;;;;;;;2.42;2.22;;;15.70;99.90;;;;;;5064349;28;20201;-72
2021/05/18 14:37:04;;;;;;;2.47;1.70;;;15.70;99.90;;;;;;5069708;28;20244;-72
2021/05/18 14:39:48;;;;;;;1.70;1.50;;;15.70;99.90;;;;;;5070940;28;20194;-72
2021/05/18 14:44:58;;;;;;;2.50;1.83;;;15.70;99.90;;;;;;5050421;28;20289;-73
2021/05/18 14:47:30;;;;;;;2.63;1.73;;;15.70;99.90;;;;;;5051843;28;20206;-72
2021/05/18 14:55:25;;;;;;;2.22;2.03;;;15.70;99.90;;;;;;5068113;28;20258;-72
2021/05/18 14:57:52;;;;;;;2.30;2.10;;;15.70;99.90;;;;;;5059594;28;20229;-72
2021/05/18 15:00:19;;;;;;;2.17;1.98;;;15.70;99.90;;;;;;5059590;28;20248;-72
2021/05/18 15:02:46;;;;;;;2.45;2.25;;;15.70;99.90;;;;;;5057276;28;20205;-72
2021/05/18 15:05:12;;;;;;;2.70;2.25;;;15.70;99.90;;;;;;5068309;28;20256;-72
2021/05/18 15:07:41;;;;;;;2.72;2.42;;;15.70;99.90;;;;;;5062518;28;20516;-72
2021/05/18 15:10:08;;;;;;;2.33;2.13;;;15.70;99.90;;;;;;5060973;28;20233;-72
2021/05/18 15:12:35;;;;;;;2.75;2.47;;;15.70;99.90;;;;;;5054848;28;20702;-73
2021/05/18 15:15:01;;;;;;;3.47;3.17;;;15.80;99.90;;;;;;5053181;28;20210;-72
2021/05/18 15:17:28;;;;;;;3.28;2.70;;;15.70;99.90;;;;;;5069453;28;20212;-71
2021/05/18 15:19:54;;;;;;;2.35;2.15;;;15.70;99.90;;;;;;5060282;28;20194;-73
2021/05/18 15:22:20;;;;;;;2.75;2.55;;;15.70;99.90;;;;;;5069530;28;20248;-72
2021/05/18 15:24:47;;;;;;;2.58;2.38;;;15.80;99.90;;;;;;5053959;28;20210;-72
2021/05/18 15:27:13;;;;;;;3.05;2.08;;;15.80;99.90;;;;;;5050113;28;20213;-72
2021/05/18 15:29:40;;;;;;;2.42;2.22;;;15.80;99.90;;;;;;5053090;28;20227;-72
2021/05/18 15:32:06;;;;;;;2.35;2.17;;;15.80;99.90;;;;;;5056677;28;20235;-72
2021/05/18 15:34:33;;;;;;;1.80;1.50;;;15.80;99.90;;;;;;5069356;28;20195;-73
2021/05/18 15:36:59;;;;;;;2.90;2.25;;;15.80;99.90;;;;;;5059619;28;20194;-73
2021/05/18 15:39:26;;;;;;;2.53;2.33;;;15.80;99.90;;;;;;5054215;28;20687;-73
2021/05/18 15:41:53;;;;;;;2.42;2.03;;;15.90;99.90;;;;;;5067197;28;20923;-73
2021/05/18 15:44:19;;;;;;;1.92;1.73;;;15.90;99.90;;;;;;5070521;28;20198;-73
2021/05/18 15:46:46;;;;;;;2.35;2.10;;;15.90;99.90;;;;;;5052797;28;20210;-72
2021/05/18 15:49:12;;;;;;;2.20;2.00;;;15.90;99.90;;;;;;5056761;28;20276;-73
2021/05/18 15:51:39;;;;;;;2.80;2.60;;;15.90;99.90;;;;;;5064958;28;20190;-73
2021/05/18 15:54:06;;;;;;;2.33;2.13;;;15.90;99.90;;;;;;5054756;28;20203;-73
2021/05/18 15:56:33;;;;;;;2.13;1.92;;;16.00;99.90;;;;;;5063790;28;20737;-71
2021/05/18 15:58:59;;;;;;;2.45;2.25;;;16.00;99.90;;;;;;5064031;28;20635;-73
2021/05/18 16:01:26;;;;;;;1.80;1.70;;;16.00;99.90;;;;;;5065742;28;20262;-74
2021/05/18 16:03:53;;;;;;;2.13;1.85;;;16.00;99.90;;;;;;5074809;28;20202;-73
2021/05/18 16:06:21;;;;;;;2.40;2.17;;;16.00;99.90;;;;;;5078125;28;20630;-74
2021/05/18 16:09:00;;;;;;;1.65;1.55;;;15.90;99.90;;;;;;5066345;28;20597;-74
2021/05/18 16:11:26;;;;;;;1.63;1.52;;;15.90;99.90;;;;;;5060017;28;20198;-73
2021/05/18 16:13:52;;;;;;;2.53;2.33;;;15.90;99.90;;;;;;5061110;28;20202;-73
2021/05/18 16:16:18;;;;;;;2.50;2.00;;;15.90;99.90;;;;;;5070832;28;20205;-73
2021/05/18 16:18:45;;;;;;;1.88;1.77;;;15.90;99.90;;;;;;5057205;28;20198;-73
2021/05/18 16:21:16;;;;;;;3.03;1.80;;;15.90;99.90;;;;;;5054856;28;20286;-73
2021/05/18 16:23:42;;;;;;;2.70;1.75;;;15.90;99.90;;;;;;5063230;28;20217;-72
2021/05/18 16:26:09;;;;;;;1.70;1.60;;;15.90;99.90;;;;;;5074939;28;20202;-73
2021/05/18 16:28:35;;;;;;;2.20;2.00;;;15.90;99.90;;;;;;5067357;28;20229;-73
2021/05/18 16:31:02;;;;;;;1.52;1.30;;;15.90;99.90;;;;;;5061639;28;20643;-74
2021/05/18 16:33:29;;;;;;;1.50;1.40;;;15.90;99.90;;;;;;5054184;28;20210;-74
2021/05/18 16:35:56;;;;;;;1.88;1.67;;;15.90;99.90;;;;;;5068882;28;20530;-73
2021/05/18 16:38:23;;;;;;;1.73;1.50;;;15.90;99.90;;;;;;5073530;28;20186;-73
2021/05/18 16:40:52;;;;;;;2.20;1.88;;;15.90;99.90;;;;;;5074144;28;20205;-73
2021/05/18 16:43:20;;;;;;;1.73;1.63;;;15.90;99.90;;;;;;5069135;28;20194;-73
2021/05/18 16:45:46;;;;;;;5.03;1.92;;;15.90;99.90;;;;;;5074167;28;20209;-74
2021/05/18 16:48:12;;;;;;;2.40;2.05;;;15.90;99.90;;;;;;5070777;28;20202;-73
2021/05/18 16:50:38;;;;;;;1.83;1.65;;;15.90;99.90;;;;;;5074276;28;20205;-73
2021/05/18 16:53:04;;;;;;;2.30;1.83;;;15.90;99.90;;;;;;5068646;28;20213;-73
2021/05/18 16:55:32;;;;;;;1.40;1.30;;;15.90;99.90;;;;;;5060912;28;20210;-73
2021/05/18 16:57:58;;;;;;;1.98;1.67;;;15.90;99.90;;;;;;5057073;28;20206;-73
2021/05/18 17:00:25;;;;;;;2.15;1.80;;;16.00;99.90;;;;;;5054053;28;20659;-73
2021/05/18 17:02:51;;;;;;;1.67;1.35;;;16.00;99.90;;;;;;5060714;28;20195;-73
2021/05/18 17:05:17;;;;;;;2.20;1.55;;;16.00;99.90;;;;;;5060580;28;20206;-72
2021/05/18 17:07:43;;;;;;;1.90;1.52;;;16.00;99.90;;;;;;5059308;28;20198;-72
2021/05/18 17:10:11;;;;;;;1.45;1.35;;;16.00;99.90;;;;;;5060312;28;20680;-73
2021/05/18 17:12:38;;;;;;;1.58;1.48;;;16.00;99.90;;;;;;5064096;28;20195;-72